sensor_id;sensor_type;location;lat;lon;timestamp;temperature;humidity
10536;DHT22;5316;49.538;8.352;2022-12-10T00:01:21;2.30;99.90
10536;DHT22;5316;49.538;8.352;2022-12-10T00:03:49;2.30;99.90
10536;DHT22;5316;49.538;8.352;2022-12-10T00:06:17;2.30;99.90
10536;DHT22;5316;49.538;8.352;2022-12-10T00:08:44;2.30;99.90
10536;DHT22;5316;49.538;8.352;2022-12-10T00:11:13;2.20;99.90
10536;DHT22;5316;49.538;8.352;2022-12-10T00:13:43;2.20;99.90
10536;DHT22;5316;49.538;8.352;2022-12-10T00:16:12;2.20;99.90
10536;DHT22;5316;49.538;8.352;2022-12-10T00:18:40;2.20;99.90
10536;DHT22;5316;49.538;8.352;2022-12-10T00:21:09;2.20;99.90
10536;DHT22;5316;49.538;8.352;2022-12-10T00:23:37;2.20;99.90
10536;DHT22;5316;49.538;8.352;2022-12-10T00:26:05;2.20;99.90
10536;DHT22;5316;49.538;8.352;2022-12-10T00:28:32;2.20;99.90
10536;DHT22;5316;49.538;8.352;2022-12-10T00:31:05;2.30;99.90
10536;DHT22;5316;49.538;8.352;2022-12-10T00:33:33;2.30;99.90
10536;DHT22;5316;49.538;8.352;2022-12-10T00:36:02;2.30;99.90
10536;DHT22;5316;49.538;8.352;2022-12-10T00:38:29;2.30;99.90
10536;DHT22;5316;49.538;8.352;2022-12-10T00:40:56;2.20;99.90
10536;DHT22;5316;49.538;8.352;2022-12-10T00:43:22;2.30;99.90
10536;DHT22;5316;49.538;8.352;2022-12-10T00:45:49;2.20;99.90
10536;DHT22;5316;49.538;8.352;2022-12-10T00:48:17;2.20;99.90
10536;DHT22;5316;49.538;8.352;2022-12-10T00:50:44;2.30;99.90
10536;DHT22;5316;49.538;8.352;2022-12-10T00:53:20;2.20;99.90
10536;DHT22;5316;49.538;8.352;2022-12-10T00:55:47;2.20;99.90
10536;DHT22;5316;49.538;8.352;2022-12-10T00:58:13;2.20;99.90
10536;DHT22;5316;49.538;8.352;2022-12-10T01:00:40;2.20;99.90
10536;DHT22;5316;49.538;8.352;2022-12-10T01:03:07;2.10;99.90
10536;DHT22;5316;49.538;8.352;2022-12-10T01:09:22;2.10;99.90
10536;DHT22;5316;49.538;8.352;2022-12-10T01:12:37;2.10;99.90
10536;DHT22;5316;49.538;8.352;2022-12-10T01:16:00;2.10;99.90
10536;DHT22;5316;49.538;8.352;2022-12-10T01:18:51;2.10;99.90
10536;DHT22;5316;49.538;8.352;2022-12-10T01:21:43;2.10;99.90
10536;DHT22;5316;49.538;8.352;2022-12-10T01:24:52;2.00;99.90
10536;DHT22;5316;49.538;8.352;2022-12-10T01:28:21;2.10;99.90
10536;DHT22;5316;49.538;8.352;2022-12-10T01:31:33;2.10;99.90
10536;DHT22;5316;49.538;8.352;2022-12-10T01:34:38;2.10;99.90
10536;DHT22;5316;49.538;8.352;2022-12-10T01:39:00;2.00;99.90
10536;DHT22;5316;49.538;8.352;2022-12-10T01:42:17;2.00;99.90
10536;DHT22;5316;49.538;8.352;2022-12-10T01:45:27;1.90;99.90
10536;DHT22;5316;49.538;8.352;2022-12-10T01:51:42;2.00;99.90
10536;DHT22;5316;49.538;8.352;2022-12-10T01:54:56;2.00;99.90
10536;DHT22;5316;49.538;8.352;2022-12-10T01:58:00;2.00;99.90
10536;DHT22;5316;49.538;8.352;2022-12-10T02:01:01;2.00;99.90
10536;DHT22;5316;49.538;8.352;2022-12-10T02:04:01;1.90;99.90
10536;DHT22;5316;49.538;8.352;2022-12-10T02:07:17;2.00;99.90
10536;DHT22;5316;49.538;8.352;2022-12-10T02:10:50;1.90;99.90
10536;DHT22;5316;49.538;8.352;2022-12-10T02:13:51;2.00;99.90
10536;DHT22;5316;49.538;8.352;2022-12-10T02:16:58;1.90;99.90
10536;DHT22;5316;49.538;8.352;2022-12-10T02:20:24;1.90;99.90
10536;DHT22;5316;49.538;8.352;2022-12-10T02:23:35;1.90;99.90
10536;DHT22;5316;49.538;8.352;2022-12-10T02:26:40;1.80;99.90
10536;DHT22;5316;49.538;8.352;2022-12-10T02:29:51;1.80;99.90
10536;DHT22;5316;49.538;8.352;2022-12-10T02:36:09;1.80;99.90
10536;DHT22;5316;49.538;8.352;2022-12-10T02:38:57;1.80;99.90
10536;DHT22;5316;49.538;8.352;2022-12-10T02:42:38;1.70;99.90
10536;DHT22;5316;49.538;8.352;2022-12-10T02:45:09;1.80;99.90
10536;DHT22;5316;49.538;8.352;2022-12-10T02:48:02;1.70;99.90
10536;DHT22;5316;49.538;8.352;2022-12-10T02:50:52;1.70;99.90
10536;DHT22;5316;49.538;8.352;2022-12-10T02:53:25;1.70;99.90
10536;DHT22;5316;49.538;8.352;2022-12-10T02:56:08;1.70;99.90
10536;DHT22;5316;49.538;8.352;2022-12-10T02:58:48;1.70;99.90
10536;DHT22;5316;49.538;8.352;2022-12-10T03:01:53;1.70;99.90
10536;DHT22;5316;49.538;8.352;2022-12-10T03:04:42;1.70;99.90
10536;DHT22;5316;49.538;8.352;2022-12-10T03:07:22;1.60;99.90
10536;DHT22;5316;49.538;8.352;2022-12-10T03:10:10;1.60;99.90
10536;DHT22;5316;49.538;8.352;2022-12-10T03:12:58;1.60;99.90
10536;DHT22;5316;49.538;8.352;2022-12-10T03:15:35;1.60;99.90
10536;DHT22;5316;49.538;8.352;2022-12-10T03:21:16;1.60;99.90
10536;DHT22;5316;49.538;8.352;2022-12-10T03:24:05;1.60;99.90
10536;DHT22;5316;49.538;8.352;2022-12-10T03:26:40;1.60;99.90
10536;DHT22;5316;49.538;8.352;2022-12-10T03:29:18;1.60;99.90
10536;DHT22;5316;49.538;8.352;2022-12-10T03:32:04;1.60;99.90
10536;DHT22;5316;49.538;8.352;2022-12-10T03:37:36;1.60;99.90
10536;DHT22;5316;49.538;8.352;2022-12-10T03:40:08;1.60;99.90
10536;DHT22;5316;49.538;8.352;2022-12-10T03:42:40;1.70;99.90
10536;DHT22;5316;49.538;8.352;2022-12-10T03:45:14;1.60;99.90
10536;DHT22;5316;49.538;8.352;2022-12-10T03:47:42;1.60;99.90
10536;DHT22;5316;49.538;8.352;2022-12-10T03:50:26;1.60;99.90
10536;DHT22;5316;49.538;8.352;2022-12-10T03:53:07;1.60;99.90
10536;DHT22;5316;49.538;8.352;2022-12-10T03:55:36;1.60;99.90
10536;DHT22;5316;49.538;8.352;2022-12-10T03:58:29;1.60;99.90
10536;DHT22;5316;49.538;8.352;2022-12-10T04:01:14;1.60;99.90
10536;DHT22;5316;49.538;8.352;2022-12-10T04:03:54;1.70;99.90
10536;DHT22;5316;49.538;8.352;2022-12-10T04:06:25;1.70;99.90
10536;DHT22;5316;49.538;8.352;2022-12-10T04:09:10;1.70;99.90
10536;DHT22;5316;49.538;8.352;2022-12-10T04:12:05;1.60;99.90
10536;DHT22;5316;49.538;8.352;2022-12-10T04:14:51;1.70;99.90
10536;DHT22;5316;49.538;8.352;2022-12-10T04:17:39;1.60;99.90
10536;DHT22;5316;49.538;8.352;2022-12-10T04:20:14;1.60;99.90
10536;DHT22;5316;49.538;8.352;2022-12-10T04:23:05;1.60;99.90
10536;DHT22;5316;49.538;8.352;2022-12-10T04:25:51;1.70;99.90
10536;DHT22;5316;49.538;8.352;2022-12-10T04:28:35;1.70;99.90
10536;DHT22;5316;49.538;8.352;2022-12-10T04:31:09;1.60;99.90
10536;DHT22;5316;49.538;8.352;2022-12-10T04:33:41;1.60;99.90
10536;DHT22;5316;49.538;8.352;2022-12-10T04:36:12;1.60;99.90
10536;DHT22;5316;49.538;8.352;2022-12-10T04:38:41;1.60;99.90
10536;DHT22;5316;49.538;8.352;2022-12-10T04:41:17;1.60;99.90
10536;DHT22;5316;49.538;8.352;2022-12-10T04:43:48;1.50;99.90
10536;DHT22;5316;49.538;8.352;2022-12-10T04:46:28;1.50;99.90
10536;DHT22;5316;49.538;8.352;2022-12-10T04:49:07;1.60;99.90
10536;DHT22;5316;49.538;8.352;2022-12-10T04:51:53;1.50;99.90
10536;DHT22;5316;49.538;8.352;2022-12-10T04:54:43;1.50;99.90
10536;DHT22;5316;49.538;8.352;2022-12-10T04:57:17;1.50;99.90
10536;DHT22;5316;49.538;8.352;2022-12-10T05:00:24;1.50;99.90
10536;DHT22;5316;49.538;8.352;2022-12-10T05:03:18;1.50;99.90
10536;DHT22;5316;49.538;8.352;2022-12-10T05:06:23;1.50;99.90
10536;DHT22;5316;49.538;8.352;2022-12-10T05:09:07;1.60;99.90
10536;DHT22;5316;49.538;8.352;2022-12-10T05:11:43;1.50;99.90
10536;DHT22;5316;49.538;8.352;2022-12-10T05:14:21;1.50;99.90
10536;DHT22;5316;49.538;8.352;2022-12-10T05:16:50;1.50;99.90
10536;DHT22;5316;49.538;8.352;2022-12-10T05:19:19;1.50;99.90
10536;DHT22;5316;49.538;8.352;2022-12-10T05:22:01;1.50;99.90
10536;DHT22;5316;49.538;8.352;2022-12-10T05:24:46;1.50;99.90
10536;DHT22;5316;49.538;8.352;2022-12-10T05:27:15;1.40;99.90
10536;DHT22;5316;49.538;8.352;2022-12-10T05:29:42;1.40;99.90
10536;DHT22;5316;49.538;8.352;2022-12-10T05:32:10;1.40;99.90
10536;DHT22;5316;49.538;8.352;2022-12-10T05:34:39;1.50;99.90
10536;DHT22;5316;49.538;8.352;2022-12-10T05:37:12;1.40;99.90
10536;DHT22;5316;49.538;8.352;2022-12-10T05:39:39;1.50;99.90
10536;DHT22;5316;49.538;8.352;2022-12-10T05:42:07;1.50;99.90
10536;DHT22;5316;49.538;8.352;2022-12-10T05:44:37;1.40;99.90
10536;DHT22;5316;49.538;8.352;2022-12-10T05:47:06;1.40;99.90
10536;DHT22;5316;49.538;8.352;2022-12-10T05:49:33;1.40;99.90
10536;DHT22;5316;49.538;8.352;2022-12-10T05:52:06;1.40;99.90
10536;DHT22;5316;49.538;8.352;2022-12-10T05:54:34;1.40;99.90
10536;DHT22;5316;49.538;8.352;2022-12-10T05:57:19;1.40;99.90
10536;DHT22;5316;49.538;8.352;2022-12-10T05:59:52;1.40;99.90
10536;DHT22;5316;49.538;8.352;2022-12-10T06:02:27;1.40;99.90
10536;DHT22;5316;49.538;8.352;2022-12-10T06:04:59;1.40;99.90
10536;DHT22;5316;49.538;8.352;2022-12-10T06:07:35;1.40;99.90
10536;DHT22;5316;49.538;8.352;2022-12-10T06:10:12;1.40;99.90
10536;DHT22;5316;49.538;8.352;2022-12-10T06:13:01;1.40;99.90
10536;DHT22;5316;49.538;8.352;2022-12-10T06:16:05;1.40;99.90
10536;DHT22;5316;49.538;8.352;2022-12-10T06:18:44;1.30;99.90
10536;DHT22;5316;49.538;8.352;2022-12-10T06:21:19;1.20;99.90
10536;DHT22;5316;49.538;8.352;2022-12-10T06:23:58;1.20;99.90
10536;DHT22;5316;49.538;8.352;2022-12-10T06:26:33;1.20;99.90
10536;DHT22;5316;49.538;8.352;2022-12-10T06:29:17;1.20;99.90
10536;DHT22;5316;49.538;8.352;2022-12-10T06:31:53;1.30;99.90
10536;DHT22;5316;49.538;8.352;2022-12-10T06:34:31;1.40;99.90
10536;DHT22;5316;49.538;8.352;2022-12-10T06:37:15;1.30;99.90
10536;DHT22;5316;49.538;8.352;2022-12-10T06:42:52;1.20;99.90
10536;DHT22;5316;49.538;8.352;2022-12-10T06:45:42;1.30;99.90
10536;DHT22;5316;49.538;8.352;2022-12-10T06:48:15;1.30;99.90
10536;DHT22;5316;49.538;8.352;2022-12-10T06:50:42;1.20;99.90
10536;DHT22;5316;49.538;8.352;2022-12-10T06:53:10;1.20;99.90
10536;DHT22;5316;49.538;8.352;2022-12-10T06:55:38;1.20;99.90
10536;DHT22;5316;49.538;8.352;2022-12-10T06:58:07;1.20;99.90
10536;DHT22;5316;49.538;8.352;2022-12-10T07:00:38;1.20;99.90
10536;DHT22;5316;49.538;8.352;2022-12-10T07:03:05;1.20;99.90
10536;DHT22;5316;49.538;8.352;2022-12-10T07:05:33;1.20;99.90
10536;DHT22;5316;49.538;8.352;2022-12-10T07:08:03;1.10;99.90
10536;DHT22;5316;49.538;8.352;2022-12-10T07:10:30;1.10;99.90
10536;DHT22;5316;49.538;8.352;2022-12-10T07:12:57;1.10;99.90
10536;DHT22;5316;49.538;8.352;2022-12-10T07:15:25;1.20;99.90
10536;DHT22;5316;49.538;8.352;2022-12-10T07:17:54;1.20;99.90
10536;DHT22;5316;49.538;8.352;2022-12-10T07:20:20;1.10;99.90
10536;DHT22;5316;49.538;8.352;2022-12-10T07:22:48;1.10;99.90
10536;DHT22;5316;49.538;8.352;2022-12-10T07:25:15;1.10;99.90
10536;DHT22;5316;49.538;8.352;2022-12-10T07:27:42;1.10;99.90
10536;DHT22;5316;49.538;8.352;2022-12-10T07:30:10;1.10;99.90
10536;DHT22;5316;49.538;8.352;2022-12-10T07:32:37;1.10;99.90
10536;DHT22;5316;49.538;8.352;2022-12-10T07:35:04;1.10;99.90
10536;DHT22;5316;49.538;8.352;2022-12-10T07:37:31;1.10;99.90
10536;DHT22;5316;49.538;8.352;2022-12-10T07:40:00;1.10;99.90
10536;DHT22;5316;49.538;8.352;2022-12-10T07:42:27;1.10;99.90
10536;DHT22;5316;49.538;8.352;2022-12-10T07:44:54;1.10;99.90
10536;DHT22;5316;49.538;8.352;2022-12-10T07:47:21;1.10;99.90
10536;DHT22;5316;49.538;8.352;2022-12-10T07:49:48;1.10;99.90
10536;DHT22;5316;49.538;8.352;2022-12-10T07:52:15;1.10;99.90
10536;DHT22;5316;49.538;8.352;2022-12-10T07:54:42;1.10;99.90
10536;DHT22;5316;49.538;8.352;2022-12-10T07:57:11;1.10;99.90
10536;DHT22;5316;49.538;8.352;2022-12-10T07:59:41;1.20;99.90
10536;DHT22;5316;49.538;8.352;2022-12-10T08:02:08;1.20;99.90
10536;DHT22;5316;49.538;8.352;2022-12-10T08:04:36;1.10;99.90
10536;DHT22;5316;49.538;8.352;2022-12-10T08:07:03;1.20;99.90
10536;DHT22;5316;49.538;8.352;2022-12-10T08:09:30;1.20;99.90
10536;DHT22;5316;49.538;8.352;2022-12-10T08:11:57;1.30;99.90
10536;DHT22;5316;49.538;8.352;2022-12-10T08:14:25;1.30;99.90
10536;DHT22;5316;49.538;8.352;2022-12-10T08:16:52;1.40;99.90
10536;DHT22;5316;49.538;8.352;2022-12-10T08:19:19;1.30;99.90
10536;DHT22;5316;49.538;8.352;2022-12-10T08:21:46;1.40;99.90
10536;DHT22;5316;49.538;8.352;2022-12-10T08:24:13;1.40;99.90
10536;DHT22;5316;49.538;8.352;2022-12-10T08:26:40;1.30;99.90
10536;DHT22;5316;49.538;8.352;2022-12-10T08:29:06;1.40;99.90
10536;DHT22;5316;49.538;8.352;2022-12-10T08:31:34;1.50;99.90
10536;DHT22;5316;49.538;8.352;2022-12-10T08:34:01;1.40;99.90
10536;DHT22;5316;49.538;8.352;2022-12-10T08:36:30;1.40;99.90
10536;DHT22;5316;49.538;8.352;2022-12-10T08:38:57;1.50;99.90
10536;DHT22;5316;49.538;8.352;2022-12-10T08:41:24;1.50;99.90
10536;DHT22;5316;49.538;8.352;2022-12-10T08:43:52;1.50;99.90
10536;DHT22;5316;49.538;8.352;2022-12-10T08:46:21;1.50;99.90
10536;DHT22;5316;49.538;8.352;2022-12-10T08:48:49;1.40;99.90
10536;DHT22;5316;49.538;8.352;2022-12-10T08:51:18;1.50;99.90
10536;DHT22;5316;49.538;8.352;2022-12-10T08:53:45;1.60;99.90
10536;DHT22;5316;49.538;8.352;2022-12-10T08:56:12;1.60;99.90
10536;DHT22;5316;49.538;8.352;2022-12-10T08:58:40;1.70;99.90
10536;DHT22;5316;49.538;8.352;2022-12-10T09:01:07;1.60;99.90
10536;DHT22;5316;49.538;8.352;2022-12-10T09:03:34;1.50;99.90
10536;DHT22;5316;49.538;8.352;2022-12-10T09:06:04;1.50;99.90
10536;DHT22;5316;49.538;8.352;2022-12-10T09:08:31;1.60;99.90
10536;DHT22;5316;49.538;8.352;2022-12-10T09:11:04;1.60;99.90
10536;DHT22;5316;49.538;8.352;2022-12-10T09:13:31;1.60;99.90
10536;DHT22;5316;49.538;8.352;2022-12-10T09:15:58;1.60;99.90
10536;DHT22;5316;49.538;8.352;2022-12-10T09:18:24;1.60;99.90
10536;DHT22;5316;49.538;8.352;2022-12-10T09:20:51;1.50;99.90
10536;DHT22;5316;49.538;8.352;2022-12-10T09:23:19;1.60;99.90
10536;DHT22;5316;49.538;8.352;2022-12-10T09:25:46;1.50;99.90
10536;DHT22;5316;49.538;8.352;2022-12-10T09:28:13;1.50;99.90
10536;DHT22;5316;49.538;8.352;2022-12-10T09:30:40;1.40;99.90
10536;DHT22;5316;49.538;8.352;2022-12-10T09:33:07;1.30;99.90
10536;DHT22;5316;49.538;8.352;2022-12-10T09:35:34;1.30;99.90
10536;DHT22;5316;49.538;8.352;2022-12-10T09:38:01;1.20;99.90
10536;DHT22;5316;49.538;8.352;2022-12-10T09:40:35;1.20;99.90
10536;DHT22;5316;49.538;8.352;2022-12-10T09:43:12;1.20;99.90
10536;DHT22;5316;49.538;8.352;2022-12-10T09:45:49;1.20;99.90
10536;DHT22;5316;49.538;8.352;2022-12-10T09:48:24;1.20;99.90
10536;DHT22;5316;49.538;8.352;2022-12-10T09:50:56;1.30;99.90
10536;DHT22;5316;49.538;8.352;2022-12-10T09:53:28;1.30;99.90
10536;DHT22;5316;49.538;8.352;2022-12-10T09:55:58;1.30;99.90
10536;DHT22;5316;49.538;8.352;2022-12-10T09:58:26;1.30;99.90
10536;DHT22;5316;49.538;8.352;2022-12-10T10:00:57;1.30;99.90
10536;DHT22;5316;49.538;8.352;2022-12-10T10:03:24;1.30;99.90
10536;DHT22;5316;49.538;8.352;2022-12-10T10:05:53;1.30;99.90
10536;DHT22;5316;49.538;8.352;2022-12-10T10:08:26;1.40;99.90
10536;DHT22;5316;49.538;8.352;2022-12-10T10:10:54;1.40;99.90
10536;DHT22;5316;49.538;8.352;2022-12-10T10:13:27;1.50;99.90
10536;DHT22;5316;49.538;8.352;2022-12-10T10:15:58;1.50;99.90
10536;DHT22;5316;49.538;8.352;2022-12-10T10:18:32;1.50;99.90
10536;DHT22;5316;49.538;8.352;2022-12-10T10:21:00;1.60;99.90
10536;DHT22;5316;49.538;8.352;2022-12-10T10:23:28;1.70;99.90
10536;DHT22;5316;49.538;8.352;2022-12-10T10:25:54;1.80;99.90
10536;DHT22;5316;49.538;8.352;2022-12-10T10:28:23;1.80;99.90
10536;DHT22;5316;49.538;8.352;2022-12-10T10:30:52;1.80;99.90
10536;DHT22;5316;49.538;8.352;2022-12-10T10:33:19;1.90;99.90
10536;DHT22;5316;49.538;8.352;2022-12-10T10:35:48;2.00;99.90
10536;DHT22;5316;49.538;8.352;2022-12-10T10:38:19;2.00;99.90
10536;DHT22;5316;49.538;8.352;2022-12-10T10:40:50;2.10;99.90
10536;DHT22;5316;49.538;8.352;2022-12-10T10:43:21;2.10;99.90
10536;DHT22;5316;49.538;8.352;2022-12-10T10:45:51;2.10;99.90
10536;DHT22;5316;49.538;8.352;2022-12-10T10:48:21;2.10;99.90
10536;DHT22;5316;49.538;8.352;2022-12-10T10:50:50;2.20;99.90
10536;DHT22;5316;49.538;8.352;2022-12-10T10:53:29;2.20;99.90
10536;DHT22;5316;49.538;8.352;2022-12-10T10:55:59;2.30;99.90
10536;DHT22;5316;49.538;8.352;2022-12-10T10:58:27;2.30;99.90
10536;DHT22;5316;49.538;8.352;2022-12-10T11:00:58;2.40;99.90
10536;DHT22;5316;49.538;8.352;2022-12-10T11:03:26;2.50;99.90
10536;DHT22;5316;49.538;8.352;2022-12-10T11:05:54;2.50;99.90
10536;DHT22;5316;49.538;8.352;2022-12-10T11:08:25;2.60;99.90
10536;DHT22;5316;49.538;8.352;2022-12-10T11:10:58;2.70;99.90
10536;DHT22;5316;49.538;8.352;2022-12-10T11:13:28;2.70;99.90
10536;DHT22;5316;49.538;8.352;2022-12-10T11:16:00;2.70;99.90
10536;DHT22;5316;49.538;8.352;2022-12-10T11:18:31;2.70;99.90
10536;DHT22;5316;49.538;8.352;2022-12-10T11:21:02;2.70;99.90
10536;DHT22;5316;49.538;8.352;2022-12-10T11:23:30;2.70;99.90
10536;DHT22;5316;49.538;8.352;2022-12-10T11:26:09;2.70;99.90
10536;DHT22;5316;49.538;8.352;2022-12-10T11:28:48;2.70;99.90
10536;DHT22;5316;49.538;8.352;2022-12-10T11:31:29;2.80;99.90
10536;DHT22;5316;49.538;8.352;2022-12-10T11:34:02;2.70;99.90
10536;DHT22;5316;49.538;8.352;2022-12-10T11:36:38;2.70;99.90
10536;DHT22;5316;49.538;8.352;2022-12-10T11:39:21;2.70;99.90
10536;DHT22;5316;49.538;8.352;2022-12-10T11:42:02;2.70;99.90
10536;DHT22;5316;49.538;8.352;2022-12-10T11:44:36;2.70;99.90
10536;DHT22;5316;49.538;8.352;2022-12-10T11:47:20;2.70;99.90
10536;DHT22;5316;49.538;8.352;2022-12-10T11:50:02;2.70;99.90
10536;DHT22;5316;49.538;8.352;2022-12-10T11:52:40;2.60;99.90
10536;DHT22;5316;49.538;8.352;2022-12-10T11:55:18;2.60;99.90
10536;DHT22;5316;49.538;8.352;2022-12-10T11:57:51;2.60;99.90
10536;DHT22;5316;49.538;8.352;2022-12-10T12:00:21;2.60;99.90
10536;DHT22;5316;49.538;8.352;2022-12-10T12:03:18;2.70;99.90
10536;DHT22;5316;49.538;8.352;2022-12-10T12:06:02;2.60;99.90
10536;DHT22;5316;49.538;8.352;2022-12-10T12:08:39;2.60;99.90
10536;DHT22;5316;49.538;8.352;2022-12-10T12:11:22;2.60;99.90
10536;DHT22;5316;49.538;8.352;2022-12-10T12:13:57;2.70;99.90
10536;DHT22;5316;49.538;8.352;2022-12-10T12:16:29;2.70;99.90
10536;DHT22;5316;49.538;8.352;2022-12-10T12:19:02;2.70;99.90
10536;DHT22;5316;49.538;8.352;2022-12-10T12:21:29;2.70;99.90
10536;DHT22;5316;49.538;8.352;2022-12-10T12:23:58;2.80;99.90
10536;DHT22;5316;49.538;8.352;2022-12-10T12:26:29;2.70;99.90
10536;DHT22;5316;49.538;8.352;2022-12-10T12:29:05;2.70;99.90
10536;DHT22;5316;49.538;8.352;2022-12-10T12:31:37;2.70;99.90
10536;DHT22;5316;49.538;8.352;2022-12-10T12:34:15;2.80;99.90
10536;DHT22;5316;49.538;8.352;2022-12-10T12:36:44;2.80;99.90
10536;DHT22;5316;49.538;8.352;2022-12-10T12:39:16;2.90;99.90
10536;DHT22;5316;49.538;8.352;2022-12-10T12:41:50;3.00;99.90
10536;DHT22;5316;49.538;8.352;2022-12-10T12:44:24;3.10;99.90
10536;DHT22;5316;49.538;8.352;2022-12-10T12:46:57;3.10;99.90
10536;DHT22;5316;49.538;8.352;2022-12-10T12:49:29;3.10;99.90
10536;DHT22;5316;49.538;8.352;2022-12-10T12:52:00;3.10;99.90
10536;DHT22;5316;49.538;8.352;2022-12-10T12:54:28;3.20;99.90
10536;DHT22;5316;49.538;8.352;2022-12-10T12:57:00;3.20;99.90
10536;DHT22;5316;49.538;8.352;2022-12-10T12:59:36;3.30;99.90
10536;DHT22;5316;49.538;8.352;2022-12-10T13:02:17;3.40;99.90
10536;DHT22;5316;49.538;8.352;2022-12-10T13:04:50;3.40;99.90
10536;DHT22;5316;49.538;8.352;2022-12-10T13:07:29;3.30;99.90
10536;DHT22;5316;49.538;8.352;2022-12-10T13:13:21;3.30;99.90
10536;DHT22;5316;49.538;8.352;2022-12-10T13:15:49;3.30;99.90
10536;DHT22;5316;49.538;8.352;2022-12-10T13:18:33;3.30;99.90
10536;DHT22;5316;49.538;8.352;2022-12-10T13:21:28;3.40;99.90
10536;DHT22;5316;49.538;8.352;2022-12-10T13:24:07;3.30;99.90
10536;DHT22;5316;49.538;8.352;2022-12-10T13:26:34;3.20;99.90
10536;DHT22;5316;49.538;8.352;2022-12-10T13:29:22;3.20;99.90
10536;DHT22;5316;49.538;8.352;2022-12-10T13:31:55;3.20;99.90
10536;DHT22;5316;49.538;8.352;2022-12-10T13:34:30;3.20;99.90
10536;DHT22;5316;49.538;8.352;2022-12-10T13:40:15;3.10;99.90
10536;DHT22;5316;49.538;8.352;2022-12-10T13:42:56;3.00;99.90
10536;DHT22;5316;49.538;8.352;2022-12-10T13:46:25;3.10;99.90
10536;DHT22;5316;49.538;8.352;2022-12-10T13:48:53;3.10;99.90
10536;DHT22;5316;49.538;8.352;2022-12-10T13:51:37;3.10;99.90
10536;DHT22;5316;49.538;8.352;2022-12-10T13:54:29;3.10;99.90
10536;DHT22;5316;49.538;8.352;2022-12-10T13:57:07;3.10;99.90
10536;DHT22;5316;49.538;8.352;2022-12-10T13:59:43;3.00;99.90
10536;DHT22;5316;49.538;8.352;2022-12-10T14:02:31;3.00;99.90
10536;DHT22;5316;49.538;8.352;2022-12-10T14:05:19;2.90;99.90
10536;DHT22;5316;49.538;8.352;2022-12-10T14:07:53;2.80;99.90
10536;DHT22;5316;49.538;8.352;2022-12-10T14:10:29;2.80;99.90
10536;DHT22;5316;49.538;8.352;2022-12-10T14:13:02;2.70;99.90
10536;DHT22;5316;49.538;8.352;2022-12-10T14:15:30;2.70;99.90
10536;DHT22;5316;49.538;8.352;2022-12-10T14:18:04;2.70;99.90
10536;DHT22;5316;49.538;8.352;2022-12-10T14:20:34;2.60;99.90
10536;DHT22;5316;49.538;8.352;2022-12-10T14:23:03;2.70;99.90
10536;DHT22;5316;49.538;8.352;2022-12-10T14:25:46;2.70;99.90
10536;DHT22;5316;49.538;8.352;2022-12-10T14:28:15;2.60;99.90
10536;DHT22;5316;49.538;8.352;2022-12-10T14:30:44;2.70;99.90
10536;DHT22;5316;49.538;8.352;2022-12-10T14:33:15;2.60;99.90
10536;DHT22;5316;49.538;8.352;2022-12-10T14:35:46;2.60;99.90
10536;DHT22;5316;49.538;8.352;2022-12-10T14:38:17;2.50;99.90
10536;DHT22;5316;49.538;8.352;2022-12-10T14:40:50;2.50;99.90
10536;DHT22;5316;49.538;8.352;2022-12-10T14:43:18;2.40;99.90
10536;DHT22;5316;49.538;8.352;2022-12-10T14:45:49;2.30;99.90
10536;DHT22;5316;49.538;8.352;2022-12-10T14:48:18;2.30;99.90
10536;DHT22;5316;49.538;8.352;2022-12-10T14:50:46;2.20;99.90
10536;DHT22;5316;49.538;8.352;2022-12-10T14:53:15;2.10;99.90
10536;DHT22;5316;49.538;8.352;2022-12-10T14:55:42;2.10;99.90
10536;DHT22;5316;49.538;8.352;2022-12-10T14:58:15;2.10;99.90
10536;DHT22;5316;49.538;8.352;2022-12-10T15:00:44;2.00;99.90
10536;DHT22;5316;49.538;8.352;2022-12-10T15:03:21;2.00;99.90
10536;DHT22;5316;49.538;8.352;2022-12-10T15:05:54;2.00;99.90
10536;DHT22;5316;49.538;8.352;2022-12-10T15:08:22;1.90;99.90
10536;DHT22;5316;49.538;8.352;2022-12-10T15:10:52;1.80;99.90
10536;DHT22;5316;49.538;8.352;2022-12-10T15:13:23;1.70;99.90
10536;DHT22;5316;49.538;8.352;2022-12-10T15:15:52;1.70;99.90
10536;DHT22;5316;49.538;8.352;2022-12-10T15:18:28;1.70;99.90
10536;DHT22;5316;49.538;8.352;2022-12-10T15:21:04;1.70;99.90
10536;DHT22;5316;49.538;8.352;2022-12-10T15:23:33;1.60;99.90
10536;DHT22;5316;49.538;8.352;2022-12-10T15:26:09;1.50;99.90
10536;DHT22;5316;49.538;8.352;2022-12-10T15:28:40;1.50;99.90
10536;DHT22;5316;49.538;8.352;2022-12-10T15:31:13;1.40;99.90
10536;DHT22;5316;49.538;8.352;2022-12-10T15:33:43;1.40;99.90
10536;DHT22;5316;49.538;8.352;2022-12-10T15:36:17;1.30;99.90
10536;DHT22;5316;49.538;8.352;2022-12-10T15:38:46;1.30;99.90
10536;DHT22;5316;49.538;8.352;2022-12-10T15:41:31;1.20;99.90
10536;DHT22;5316;49.538;8.352;2022-12-10T15:44:02;1.20;99.90
10536;DHT22;5316;49.538;8.352;2022-12-10T15:46:30;1.20;99.90
10536;DHT22;5316;49.538;8.352;2022-12-10T15:48:57;1.10;99.90
10536;DHT22;5316;49.538;8.352;2022-12-10T15:51:25;1.10;99.90
10536;DHT22;5316;49.538;8.352;2022-12-10T15:53:52;1.00;99.90
10536;DHT22;5316;49.538;8.352;2022-12-10T15:56:19;1.00;99.90
10536;DHT22;5316;49.538;8.352;2022-12-10T15:58:46;1.00;99.90
10536;DHT22;5316;49.538;8.352;2022-12-10T16:01:15;1.00;99.90
10536;DHT22;5316;49.538;8.352;2022-12-10T16:03:44;0.90;99.90
10536;DHT22;5316;49.538;8.352;2022-12-10T16:06:11;0.90;99.90
10536;DHT22;5316;49.538;8.352;2022-12-10T16:08:39;0.90;99.90
10536;DHT22;5316;49.538;8.352;2022-12-10T16:11:12;0.80;99.90
10536;DHT22;5316;49.538;8.352;2022-12-10T16:13:47;0.80;99.90
10536;DHT22;5316;49.538;8.352;2022-12-10T16:16:16;0.80;99.90
10536;DHT22;5316;49.538;8.352;2022-12-10T16:18:44;0.70;99.90
10536;DHT22;5316;49.538;8.352;2022-12-10T16:21:11;0.70;99.90
10536;DHT22;5316;49.538;8.352;2022-12-10T16:23:48;0.70;99.90
10536;DHT22;5316;49.538;8.352;2022-12-10T16:26:18;0.80;99.90
10536;DHT22;5316;49.538;8.352;2022-12-10T16:28:46;0.70;99.90
10536;DHT22;5316;49.538;8.352;2022-12-10T16:31:17;0.70;99.90
10536;DHT22;5316;49.538;8.352;2022-12-10T16:33:44;0.70;99.90
10536;DHT22;5316;49.538;8.352;2022-12-10T16:36:12;0.70;99.90
10536;DHT22;5316;49.538;8.352;2022-12-10T16:38:39;0.60;99.90
10536;DHT22;5316;49.538;8.352;2022-12-10T16:41:14;0.60;99.90
10536;DHT22;5316;49.538;8.352;2022-12-10T16:43:44;0.60;99.90
10536;DHT22;5316;49.538;8.352;2022-12-10T16:46:12;0.60;99.90
10536;DHT22;5316;49.538;8.352;2022-12-10T16:48:40;0.60;99.90
10536;DHT22;5316;49.538;8.352;2022-12-10T16:51:14;0.60;99.90
10536;DHT22;5316;49.538;8.352;2022-12-10T16:53:42;0.60;99.90
10536;DHT22;5316;49.538;8.352;2022-12-10T16:56:13;0.60;99.90
10536;DHT22;5316;49.538;8.352;2022-12-10T16:58:40;0.60;99.90
10536;DHT22;5316;49.538;8.352;2022-12-10T17:01:18;0.60;99.90
10536;DHT22;5316;49.538;8.352;2022-12-10T17:03:48;0.70;99.90
10536;DHT22;5316;49.538;8.352;2022-12-10T17:06:16;0.70;99.90
10536;DHT22;5316;49.538;8.352;2022-12-10T17:08:44;0.70;99.90
10536;DHT22;5316;49.538;8.352;2022-12-10T17:11:16;0.70;99.90
10536;DHT22;5316;49.538;8.352;2022-12-10T17:14:02;0.70;99.90
10536;DHT22;5316;49.538;8.352;2022-12-10T17:16:30;0.70;99.90
10536;DHT22;5316;49.538;8.352;2022-12-10T17:18:58;0.70;99.90
10536;DHT22;5316;49.538;8.352;2022-12-10T17:21:25;0.70;99.90
10536;DHT22;5316;49.538;8.352;2022-12-10T17:23:52;0.70;99.90